Time;durP1;ratioP1;P1;durP2;ratioP2;P2;SDS_P1;SDS_P2;PMS_P1;PMS_P2;Temp;Humidity;BMP_temperature;BMP_pressure;BME280_temperature;BME280_humidity;BME280_pressure;Samples;Min_cycle;Max_cycle;Signal;HPM_P1;HPM_P2
2022/04/12 18:06:30;;;;;;;;;;;;;;;;;;5087427;28;28422;-84
2022/04/12 18:08:55;;;;;;;;;;;;;;;;;;5069474;28;28465;-83
2022/04/12 18:11:20;;;;;;;;;;;;;;;;;;5087860;28;28397;-83
2022/04/12 18:13:45;;;;;;;;;;;;;;;;;;5088014;28;28425;-83
2022/04/12 18:16:10;;;;;;;;;;;;;;;;;;5076556;28;28239;-84
2022/04/12 18:18:35;;;;;;;;;;;;;;;;;;5138009;27;28633;-83
2022/04/12 18:21:00;;;;;;;;;;;;;;;;;;5067922;27;28419;-83
2022/04/12 18:23:26;;;;;;;;;;;;;;;;;;5076639;27;28484;-84
2022/04/12 18:25:51;;;;;;;;;;;;;;;;;;5066449;28;28581;-87
2022/04/12 18:28:16;;;;;;;;;;;;;;;;;;5081493;28;28397;-85
2022/04/12 18:30:41;;;;;;;;;;;;;;;;;;5076176;27;28642;-83
2022/04/12 18:33:08;;;;;;;;;;;;;;;;;;5084487;27;28418;-86
2022/04/12 18:35:36;;;;;;;;;;;;;;;;;;5085281;28;29276;-83
2022/04/12 18:38:01;;;;;;;;;;;;;;;;;;5085623;27;28593;-84
2022/04/12 18:40:26;;;;;;;;;;;;;;;;;;5089799;27;28527;-85
2022/04/12 18:42:53;;;;;;;;;;;;;;;;;;5108860;27;28373;-84
2022/04/12 18:45:18;;;;;;;;;;;;;;;;;;5096531;27;28504;-81
2022/04/12 18:47:43;;;;;;;;;;;;;;;;;;5087937;28;28353;-83
2022/04/12 18:50:09;;;;;;;;;;;;;;;;;;5089997;27;28641;-85
2022/04/12 18:52:34;;;;;;;;;;;;;;;;;;5098040;27;28448;-84
2022/04/12 18:55:00;;;;;;;;;;;;;;;;;;5087013;28;28396;-84
2022/04/12 18:57:25;;;;;;;;;;;;;;;;;;5087426;28;28471;-84
2022/04/12 18:59:50;;;;;;;;;;;;;;;;;;5072128;27;28557;-87
2022/04/12 19:02:16;;;;;;;;;;;;;;;;;;5067128;28;28470;-89
2022/04/12 19:04:41;;;;;;;;;;;;;;;;;;5079161;27;29159;-87
2022/04/12 19:07:06;;;;;;;;;;;;;;;;;;5103022;27;28471;-85
2022/04/12 19:09:31;;;;;;;;;;;;;;;;;;5105928;27;28704;-86
2022/04/12 19:11:56;;;;;;;;;;;;;;;;;;5066520;27;28382;-83
2022/04/12 19:14:21;;;;;;;;;;;;;;;;;;5067270;27;28558;-83
2022/04/12 19:16:49;;;;;;;;;;;;;;;;;;5060364;27;28327;-84
2022/04/12 19:19:14;;;;;;;;;;;;;;;;;;5061120;27;28461;-84
2022/04/12 19:21:39;;;;;;;;;;;;;;;;;;5094136;28;28495;-84
2022/04/12 19:24:04;;;;;;;;;;;;;;;;;;5084661;28;31579;-83
2022/04/12 19:26:29;;;;;;;;;;;;;;;;;;5073695;28;28318;-84
2022/04/12 19:28:54;;;;;;;;;;;;;;;;;;5055838;28;27807;-89
2022/04/12 19:31:20;;;;;;;;;;;;;;;;;;5063843;27;27821;-89
2022/04/12 19:33:45;;;;;;;;;;;;;;;;;;5080055;28;28460;-86
2022/04/12 19:36:10;;;;;;;;;;;;;;;;;;5093694;28;28517;-87
2022/04/12 19:38:35;;;;;;;;;;;;;;;;;;5094002;28;28332;-86
2022/04/12 19:41:00;;;;;;;;;;;;;;;;;;5081203;28;28455;-87
2022/04/12 19:43:26;;;;;;;;;;;;;;;;;;5071550;28;28894;-87
2022/04/12 19:45:51;;;;;;;;;;;;;;;;;;5073069;28;28406;-87
2022/04/12 19:48:16;;;;;;;;;;;;;;;;;;5081640;27;28499;-87
2022/04/12 19:50:41;;;;;;;;;;;;;;;;;;5061247;28;28556;-87
2022/04/12 19:53:06;;;;;;;;;;;;;;;;;;5073061;27;28523;-87
2022/04/12 19:55:31;;;;;;;;;;;;;;;;;;5091581;28;28420;-86
2022/04/12 19:57:56;;;;;;;;;;;;;;;;;;5053674;28;28334;-87
2022/04/12 20:00:21;;;;;;;;;;;;;;;;;;5054704;27;28487;-87
2022/04/12 20:02:47;;;;;;;;;;;;;;;;;;5078682;27;29746;-87
2022/04/12 20:05:12;;;;;;;;;;;;;;;;;;5074725;28;28429;-87
2022/04/12 20:07:37;;;;;;;;;;;;;;;;;;5066645;27;28460;-87
2022/04/12 20:10:05;;;;;;;;;;;;;;;;;;5072975;28;28397;-87
2022/04/12 20:12:31;;;;;;;;;;;;;;;;;;5072899;28;28403;-87
2022/04/12 20:14:56;;;;;;;;;;;;;;;;;;5072749;28;28521;-86
2022/04/12 20:17:22;;;;;;;;;;;;;;;;;;5072595;28;28448;-87
2022/04/12 20:19:48;;;;;;;;;;;;;;;;;;5073197;28;28549;-87
2022/04/12 20:22:13;;;;;;;;;;;;;;;;;;5060668;28;28583;-87
2022/04/12 20:24:38;;;;;;;;;;;;;;;;;;5052717;28;28455;-86
2022/04/12 20:27:04;;;;;;;;;;;;;;;;;;5059845;28;28480;-87
2022/04/12 20:29:29;;;;;;;;;;;;;;;;;;5071108;28;28396;-86
2022/04/12 20:31:54;;;;;;;;;;;;;;;;;;5060540;28;28433;-87
2022/04/12 20:34:19;;;;;;;;;;;;;;;;;;5052639;27;28517;-86
2022/04/12 20:36:44;;;;;;;;;;;;;;;;;;5066175;27;28572;-86
2022/04/12 20:39:10;;;;;;;;;;;;;;;;;;5072677;28;28556;-86
2022/04/12 20:41:35;;;;;;;;;;;;;;;;;;5072718;28;28948;-86
2022/04/12 20:44:00;;;;;;;;;;;;;;;;;;5072623;28;28421;-86
2022/04/12 20:46:25;;;;;;;;;;;;;;;;;;5072382;28;28904;-86
2022/04/12 20:48:51;;;;;;;;;;;;;;;;;;5072532;28;28421;-86
2022/04/12 20:51:16;;;;;;;;;;;;;;;;;;5072409;28;28547;-86
2022/04/12 20:53:41;;;;;;;;;;;;;;;;;;5072580;28;28518;-87
2022/04/12 20:56:06;;;;;;;;;;;;;;;;;;5072536;28;28818;-87
2022/04/12 20:58:32;;;;;;;;;;;;;;;;;;5072577;28;28428;-87
2022/04/12 21:00:57;;;;;;;;;;;;;;;;;;5072266;28;28427;-90
2022/04/12 21:03:23;;;;;;;;;;;;;;;;;;5084392;28;28342;-94
2022/04/12 21:05:48;;;;;;;;;;;;;;;;;;5092766;28;28450;-95
2022/04/12 21:08:13;;;;;;;;;;;;;;;;;;5076845;28;28578;-94
2022/04/12 21:10:38;;;;;;;;;;;;;;;;;;5075032;28;28434;-90
2022/04/12 21:13:03;;;;;;;;;;;;;;;;;;5055964;28;28408;-93
2022/04/12 21:15:28;;;;;;;;;;;;;;;;;;5073946;28;28417;-93
2022/04/12 21:17:53;;;;;;;;;;;;;;;;;;5074858;28;28471;-93
2022/04/12 21:20:19;;;;;;;;;;;;;;;;;;5060196;28;29946;-95
2022/04/12 21:22:44;;;;;;;;;;;;;;;;;;5076712;28;28604;-92
2022/04/12 21:25:09;;;;;;;;;;;;;;;;;;5075376;28;27826;-92
2022/04/12 21:27:34;;;;;;;;;;;;;;;;;;5074033;28;28446;-92
2022/04/12 21:30:02;;;;;;;;;;;;;;;;;;5054969;28;28572;-92
2022/04/12 21:32:28;;;;;;;;;;;;;;;;;;5072996;28;28557;-92
2022/04/12 21:34:53;;;;;;;;;;;;;;;;;;5082597;27;28503;-94
2022/04/12 21:37:18;;;;;;;;;;;;;;;;;;5044400;27;28549;-92
2022/04/12 21:39:43;;;;;;;;;;;;;;;;;;5094318;28;29146;-93
2022/04/12 21:42:08;;;;;;;;;;;;;;;;;;5085616;28;28489;-92
2022/04/12 21:44:33;;;;;;;;;;;;;;;;;;5073630;28;27767;-93
2022/04/12 21:46:58;;;;;;;;;;;;;;;;;;5055274;28;28409;-93
2022/04/12 21:49:23;;;;;;;;;;;;;;;;;;5055090;28;29778;-92
2022/04/12 21:51:48;;;;;;;;;;;;;;;;;;5055481;28;28488;-94
2022/04/12 21:54:14;;;;;;;;;;;;;;;;;;5123000;27;28279;-91
2022/04/12 21:56:39;;;;;;;;;;;;;;;;;;5072491;28;28429;-93
2022/04/12 21:59:04;;;;;;;;;;;;;;;;;;5074145;28;28577;-93
2022/04/12 22:01:29;;;;;;;;;;;;;;;;;;5072813;28;29071;-93
2022/04/12 22:03:54;;;;;;;;;;;;;;;;;;5073800;28;28534;-93
2022/04/12 22:06:20;;;;;;;;;;;;;;;;;;5057400;27;28315;-93
2022/04/12 22:08:46;;;;;;;;;;;;;;;;;;5052317;27;29885;-92
2022/04/12 22:11:11;;;;;;;;;;;;;;;;;;5059983;28;28419;-92
2022/04/12 22:13:37;;;;;;;;;;;;;;;;;;5056316;28;28397;-93
2022/04/12 22:16:02;;;;;;;;;;;;;;;;;;5070387;28;28552;-94
2022/04/12 22:18:27;;;;;;;;;;;;;;;;;;5089673;28;28549;-94
2022/04/12 22:20:52;;;;;;;;;;;;;;;;;;5079207;28;28672;-93
2022/04/12 22:23:17;;;;;;;;;;;;;;;;;;5076580;28;28560;-93
2022/04/12 22:25:43;;;;;;;;;;;;;;;;;;5061845;28;28396;-92
2022/04/12 22:28:08;;;;;;;;;;;;;;;;;;5072336;28;28595;-93
2022/04/12 22:30:34;;;;;;;;;;;;;;;;;;5074195;28;28394;-92
2022/04/12 22:33:00;;;;;;;;;;;;;;;;;;5064315;28;28454;-92
2022/04/12 22:35:25;;;;;;;;;;;;;;;;;;5092682;28;28331;-95
2022/04/12 22:37:50;;;;;;;;;;;;;;;;;;5076254;28;29738;-95
2022/04/12 22:40:15;;;;;;;;;;;;;;;;;;5075222;28;28332;-93
2022/04/12 22:42:41;;;;;;;;;;;;;;;;;;5075311;28;28428;-93
2022/04/12 22:45:07;;;;;;;;;;;;;;;;;;5089611;28;28368;-93
2022/04/12 22:47:32;;;;;;;;;;;;;;;;;;5073298;28;28294;-93
2022/04/12 22:49:57;;;;;;;;;;;;;;;;;;5086173;28;28802;-93
2022/04/12 22:52:22;;;;;;;;;;;;;;;;;;5074816;28;28308;-93
2022/04/12 22:54:48;;;;;;;;;;;;;;;;;;5078344;28;28918;-93
2022/04/12 22:57:13;;;;;;;;;;;;;;;;;;5064409;28;28693;-92
2022/04/12 22:59:38;;;;;;;;;;;;;;;;;;5078703;28;28533;-93
2022/04/12 23:02:03;;;;;;;;;;;;;;;;;;5078328;28;28354;-92
2022/04/12 23:04:28;;;;;;;;;;;;;;;;;;5097921;28;28766;-94
2022/04/12 23:06:53;;;;;;;;;;;;;;;;;;5096915;28;28407;-93
2022/04/12 23:09:18;;;;;;;;;;;;;;;;;;5095840;28;28541;-93
2022/04/12 23:11:43;;;;;;;;;;;;;;;;;;5071987;28;28267;-94
2022/04/12 23:14:08;;;;;;;;;;;;;;;;;;5063510;28;28309;-93
2022/04/12 23:16:33;;;;;;;;;;;;;;;;;;5066336;28;29824;-94
2022/04/12 23:18:59;;;;;;;;;;;;;;;;;;5059506;28;27875;-91
2022/04/12 23:21:24;;;;;;;;;;;;;;;;;;5089078;28;28582;-94
2022/04/12 23:23:54;;;;;;;;;;;;;;;;;;5059946;28;28469;-91
2022/04/12 23:26:19;;;;;;;;;;;;;;;;;;5043861;28;29795;-91
2022/04/12 23:28:44;;;;;;;;;;;;;;;;;;5098474;27;29556;-92
2022/04/12 23:31:10;;;;;;;;;;;;;;;;;;5090492;27;27872;-91
2022/04/12 23:33:36;;;;;;;;;;;;;;;;;;5103133;27;28353;-91
2022/04/12 23:36:01;;;;;;;;;;;;;;;;;;5071624;28;29648;-91
2022/04/12 23:38:26;;;;;;;;;;;;;;;;;;5067432;27;28316;-94
2022/04/12 23:40:51;;;;;;;;;;;;;;;;;;5078302;28;28299;-91
2022/04/12 23:43:16;;;;;;;;;;;;;;;;;;5076174;27;28338;-91
2022/04/12 23:45:41;;;;;;;;;;;;;;;;;;5071056;28;28706;-92
2022/04/12 23:48:09;;;;;;;;;;;;;;;;;;5084287;27;28529;-90
2022/04/12 23:50:36;;;;;;;;;;;;;;;;;;5063352;28;28420;-91
2022/04/12 23:53:01;;;;;;;;;;;;;;;;;;5096481;28;28479;-91
2022/04/12 23:55:33;;;;;;;;;;;;;;;;;;5061066;28;28675;-90
2022/04/12 23:57:58;;;;;;;;;;;;;;;;;;5056171;28;28343;-92
